createdAt,value
2022-09-15T00:01:25.182Z,77.18
2022-09-15T00:03:53.514Z,75.92
2022-09-15T00:06:21.699Z,76.23
2022-09-15T00:08:49.931Z,78.00
2022-09-15T00:11:27.089Z,77.03
2022-09-15T00:13:57.138Z,75.62
2022-09-15T00:16:28.713Z,76.31
2022-09-15T00:18:57.869Z,75.42
2022-09-15T00:21:30.578Z,74.82
2022-09-15T00:24:01.322Z,74.42
2022-09-15T00:26:32.477Z,74.34
2022-09-15T00:29:02.236Z,74.20
2022-09-15T00:31:32.110Z,74.19
2022-09-15T00:34:05.120Z,73.25
2022-09-15T00:36:33.946Z,73.02
2022-09-15T00:39:02.204Z,74.29
2022-09-15T00:41:30.875Z,74.20
2022-09-15T00:44:23.986Z,74.69
2022-09-15T00:47:15.658Z,75.57
2022-09-15T00:49:50.606Z,76.21
2022-09-15T00:52:36.232Z,76.74
2022-09-15T00:55:49.815Z,78.61
2022-09-15T00:58:50.884Z,78.67
2022-09-15T01:01:19.180Z,78.83
2022-09-15T01:03:47.438Z,77.52
2022-09-15T01:06:29.264Z,79.05
2022-09-15T01:09:12.728Z,80.92
2022-09-15T01:11:42.204Z,79.82
2022-09-15T01:14:11.166Z,79.05
2022-09-15T01:17:17.410Z,79.77
2022-09-15T01:20:10.312Z,80.35
2022-09-15T01:23:18.615Z,79.20
2022-09-15T01:26:18.300Z,80.64
2022-09-15T01:29:01.792Z,79.42
2022-09-15T01:32:13.948Z,83.43
2022-09-15T01:35:02.419Z,81.73
2022-09-15T01:37:39.591Z,85.72
2022-09-15T01:40:11.012Z,82.92
2022-09-15T01:42:42.473Z,84.43
2022-09-15T01:45:30.975Z,84.21
2022-09-15T01:48:02.684Z,84.55
2022-09-15T01:50:40.096Z,86.32
2022-09-15T01:53:18.370Z,84.63
2022-09-15T01:56:01.157Z,86.79
2022-09-15T01:58:29.325Z,85.39
2022-09-15T02:01:10.160Z,85.74
2022-09-15T02:04:01.214Z,86.25
2022-09-15T02:06:44.998Z,86.03
2022-09-15T02:09:25.485Z,85.75
2022-09-15T02:12:25.384Z,85.89
2022-09-15T02:15:05.801Z,86.38
2022-09-15T02:17:48.321Z,87.52
2022-09-15T02:20:25.451Z,86.49
2022-09-15T02:23:00.473Z,85.91
2022-09-15T02:25:36.500Z,84.71
2022-09-15T02:28:09.906Z,89.69
2022-09-15T02:30:43.068Z,87.04
2022-09-15T02:33:19.905Z,86.01
2022-09-15T02:35:48.052Z,85.03
2022-09-15T02:38:16.345Z,85.88
2022-09-15T02:40:46.245Z,86.99
2022-09-15T02:43:19.346Z,87.74
2022-09-15T02:45:47.923Z,86.49
2022-09-15T02:48:16.150Z,87.18
2022-09-15T02:50:44.267Z,85.41
2022-09-15T02:53:12.411Z,85.42
2022-09-15T02:55:40.587Z,85.91
2022-09-15T02:58:08.750Z,91.81
2022-09-15T03:00:38.914Z,89.68
2022-09-15T03:03:07.110Z,87.73
2022-09-15T03:05:35.292Z,88.34
2022-09-15T03:08:03.418Z,87.90
2022-09-15T03:10:33.517Z,86.93
2022-09-15T03:13:02.292Z,85.75
2022-09-15T03:15:30.423Z,84.80
2022-09-15T03:17:58.810Z,84.05
2022-09-15T03:20:28.908Z,85.57
2022-09-15T03:22:57.128Z,84.88
2022-09-15T03:25:27.008Z,83.67
2022-09-15T03:27:55.250Z,83.95
2022-09-15T03:30:23.390Z,82.72
2022-09-15T03:32:51.549Z,83.46
2022-09-15T03:35:19.680Z,81.91
2022-09-15T03:37:47.823Z,82.47
2022-09-15T03:40:16.049Z,81.65
2022-09-15T03:42:44.285Z,81.13
2022-09-15T03:45:12.479Z,82.18
2022-09-15T03:47:40.605Z,80.92
2022-09-15T03:50:09.148Z,81.52
2022-09-15T03:52:37.263Z,80.98
2022-09-15T03:55:05.904Z,80.62
2022-09-15T03:57:34.078Z,81.64
2022-09-15T04:00:04.011Z,82.36
2022-09-15T04:02:32.971Z,80.88
2022-09-15T04:05:01.104Z,81.56
2022-09-15T04:07:29.348Z,81.82
2022-09-15T04:09:57.477Z,82.99
2022-09-15T04:12:25.647Z,81.46
2022-09-15T04:14:54.108Z,82.03
2022-09-15T04:17:22.762Z,80.64
2022-09-15T04:19:50.884Z,81.13
2022-09-15T04:22:19.866Z,80.02
2022-09-15T04:24:48.486Z,81.80
2022-09-15T04:27:17.549Z,82.18
2022-09-15T04:29:46.238Z,80.24
2022-09-15T04:32:14.408Z,82.21
2022-09-15T04:34:42.611Z,82.11
2022-09-15T04:37:11.027Z,81.19
2022-09-15T04:39:39.275Z,82.87
2022-09-15T04:42:07.941Z,84.47
2022-09-15T04:44:36.233Z,84.26
2022-09-15T04:47:04.599Z,84.12
2022-09-15T04:49:33.434Z,85.60
2022-09-15T04:52:01.723Z,86.67
2022-09-15T04:54:30.005Z,86.05
2022-09-15T04:56:58.125Z,84.79
2022-09-15T04:59:26.276Z,86.16
2022-09-15T05:01:56.049Z,84.50
2022-09-15T05:04:24.271Z,86.78
2022-09-15T05:06:52.715Z,87.57
2022-09-15T05:09:20.906Z,87.48
2022-09-15T05:11:49.031Z,90.26
2022-09-15T05:14:17.298Z,89.18
2022-09-15T05:16:46.330Z,89.51
2022-09-15T05:19:14.503Z,89.33
2022-09-15T05:21:42.696Z,89.23
2022-09-15T05:24:10.887Z,89.31
2022-09-15T05:26:39.083Z,89.26
2022-09-15T05:29:07.703Z,89.21
2022-09-15T05:31:35.916Z,87.58
2022-09-15T05:34:05.763Z,88.52
2022-09-15T05:36:34.568Z,88.42
2022-09-15T05:39:02.946Z,89.30
2022-09-15T05:41:31.084Z,89.68
2022-09-15T05:43:59.368Z,91.09
2022-09-15T05:46:29.217Z,90.70
2022-09-15T05:48:59.065Z,89.98
2022-09-15T05:51:27.721Z,90.46
2022-09-15T05:53:56.396Z,90.02
2022-09-15T05:56:24.693Z,90.69
2022-09-15T05:58:52.991Z,90.95
2022-09-15T06:01:23.707Z,90.19
2022-09-15T06:03:53.616Z,90.48
2022-09-15T06:06:23.868Z,90.60
2022-09-15T06:08:58.751Z,89.00
2022-09-15T06:11:31.466Z,90.16
2022-09-15T06:14:03.177Z,90.70
2022-09-15T06:16:35.064Z,90.69
2022-09-15T06:19:03.598Z,90.56
2022-09-15T06:21:33.430Z,90.42
2022-09-15T06:24:07.118Z,91.13
2022-09-15T06:26:35.525Z,90.52
2022-09-15T06:29:05.936Z,89.46
2022-09-15T06:31:35.631Z,88.96
2022-09-15T06:34:05.440Z,89.64
2022-09-15T06:36:33.737Z,89.28
2022-09-15T06:39:02.904Z,88.17
2022-09-15T06:41:47.382Z,88.44
2022-09-15T06:44:20.226Z,88.57
2022-09-15T06:46:50.317Z,88.64
2022-09-15T06:49:19.221Z,87.96
2022-09-15T06:51:48.082Z,87.17
2022-09-15T06:54:16.814Z,87.39
2022-09-15T06:56:45.415Z,85.89
2022-09-15T06:59:16.938Z,85.05
2022-09-15T07:01:45.087Z,84.79
2022-09-15T07:04:13.234Z,85.00
2022-09-15T07:06:41.440Z,84.75
2022-09-15T07:09:10.888Z,84.97
2022-09-15T07:11:39.427Z,84.52
2022-09-15T07:14:07.893Z,84.00
2022-09-15T07:16:36.189Z,83.75
2022-09-15T07:19:06.060Z,83.01
2022-09-15T07:21:34.448Z,82.56
2022-09-15T07:24:06.982Z,82.64
2022-09-15T07:26:35.772Z,80.83
2022-09-15T07:29:06.905Z,80.71
2022-09-15T07:31:38.392Z,79.40
2022-09-15T07:34:07.529Z,79.71
2022-09-15T07:36:36.225Z,80.36
2022-09-15T07:39:05.136Z,79.87
2022-09-15T07:41:33.381Z,79.97
2022-09-15T07:44:01.844Z,79.80
2022-09-15T07:46:32.914Z,79.00
2022-09-15T07:49:03.389Z,78.52
2022-09-15T07:51:31.888Z,78.38
2022-09-15T07:54:00.477Z,78.04
2022-09-15T07:56:28.869Z,78.31
2022-09-15T07:58:57.530Z,77.59
2022-09-15T08:01:25.861Z,77.09
2022-09-15T08:03:54.256Z,78.08
2022-09-15T08:06:25.921Z,78.12
2022-09-15T08:09:00.153Z,77.00
2022-09-15T08:11:29.731Z,77.18
2022-09-15T08:14:02.445Z,76.84
2022-09-15T08:16:31.404Z,76.04
2022-09-15T08:18:59.654Z,76.01
2022-09-15T08:21:29.195Z,76.51
2022-09-15T08:23:59.949Z,75.68
2022-09-15T08:26:29.570Z,75.06
2022-09-15T08:28:58.550Z,75.66
2022-09-15T08:31:26.837Z,76.35
2022-09-15T08:33:56.071Z,74.60
2022-09-15T08:36:27.908Z,75.46
2022-09-15T08:38:56.833Z,75.22
2022-09-15T08:41:30.176Z,73.08
2022-09-15T08:44:16.772Z,73.83
2022-09-15T08:46:56.633Z,74.04
2022-09-15T08:49:50.988Z,72.83
2022-09-15T08:52:35.495Z,74.21
2022-09-15T08:55:40.639Z,72.92
2022-09-15T08:58:19.799Z,73.18
2022-09-15T09:01:13.669Z,74.58
2022-09-15T09:03:59.954Z,75.15
2022-09-15T09:06:58.991Z,73.76
2022-09-15T09:10:17.156Z,72.63
2022-09-15T09:13:09.268Z,74.60
2022-09-15T09:16:01.066Z,72.72
2022-09-15T09:18:46.873Z,73.56
2022-09-15T09:21:33.776Z,72.27
2022-09-15T09:24:12.211Z,71.75
2022-09-15T09:26:40.490Z,70.78
2022-09-15T09:29:24.341Z,69.24
2022-09-15T09:31:55.832Z,69.45
2022-09-15T09:34:54.437Z,69.28
2022-09-15T09:37:23.838Z,70.17
2022-09-15T09:39:52.193Z,70.07
2022-09-15T09:42:30.272Z,68.40
2022-09-15T09:44:58.491Z,69.83
2022-09-15T09:47:29.809Z,69.07
2022-09-15T09:49:58.109Z,68.05
2022-09-15T09:52:39.727Z,68.37
2022-09-15T09:55:23.610Z,69.44
2022-09-15T09:57:51.786Z,68.46
2022-09-15T10:00:39.612Z,67.72
2022-09-15T10:03:29.403Z,68.40
2022-09-15T10:06:12.585Z,67.82
2022-09-15T10:09:05.994Z,65.80
2022-09-15T10:11:54.696Z,64.55
2022-09-15T10:14:30.087Z,64.78
2022-09-15T10:17:13.454Z,64.96
2022-09-15T10:19:58.448Z,64.37
2022-09-15T10:22:42.197Z,63.25
2022-09-15T10:25:19.361Z,62.96
2022-09-15T10:28:16.570Z,62.57
2022-09-15T10:31:08.058Z,62.32
2022-09-15T10:33:41.879Z,62.47
2022-09-15T10:36:15.947Z,61.94
2022-09-15T10:38:48.791Z,61.97
2022-09-15T10:41:44.221Z,62.49
2022-09-15T10:44:47.965Z,61.96
2022-09-15T10:47:42.791Z,59.94
2022-09-15T10:50:36.482Z,61.44
2022-09-15T10:53:28.856Z,60.56
2022-09-15T10:56:18.067Z,58.03
2022-09-15T10:59:26.203Z,57.22
2022-09-15T11:02:55.424Z,58.43
2022-09-15T11:05:39.869Z,57.73
2022-09-15T11:08:25.317Z,55.77
2022-09-15T11:11:33.890Z,53.80
2022-09-15T11:14:29.548Z,54.50
2022-09-15T11:17:09.618Z,54.70
2022-09-15T11:20:03.217Z,53.55
2022-09-15T11:22:54.842Z,55.29
2022-09-15T11:25:30.270Z,54.32
2022-09-15T11:28:24.451Z,55.48
2022-09-15T11:31:19.164Z,55.91
2022-09-15T11:33:58.554Z,55.89
2022-09-15T11:37:05.431Z,56.01
2022-09-15T11:39:53.216Z,55.26
2022-09-15T11:42:44.921Z,56.18
2022-09-15T11:45:25.551Z,55.03
2022-09-15T11:48:04.305Z,54.73
2022-09-15T11:50:41.611Z,54.70
2022-09-15T11:53:35.521Z,54.54
2022-09-15T11:56:30.544Z,55.37
2022-09-15T11:59:19.683Z,52.49
2022-09-15T12:02:23.883Z,53.01
2022-09-15T12:05:15.087Z,53.53
2022-09-15T12:07:58.016Z,52.68
2022-09-15T12:10:35.482Z,53.85
2022-09-15T12:13:05.393Z,53.47
2022-09-15T12:15:34.106Z,53.13
2022-09-15T12:18:43.745Z,53.55
2022-09-15T12:21:57.473Z,55.08
2022-09-15T12:24:45.941Z,54.67
2022-09-15T12:27:18.221Z,55.70
2022-09-15T12:29:56.260Z,54.02
2022-09-15T12:32:30.759Z,53.76
2022-09-15T12:35:11.408Z,53.79
2022-09-15T12:38:00.762Z,54.84
2022-09-15T12:40:42.336Z,56.74
2022-09-15T12:43:15.210Z,56.36
2022-09-15T12:46:04.817Z,57.02
2022-09-15T12:48:36.967Z,57.37
2022-09-15T12:51:10.938Z,58.08
2022-09-15T12:54:09.372Z,58.30
2022-09-15T12:56:39.689Z,58.16
2022-09-15T12:59:17.735Z,58.54
2022-09-15T13:01:51.730Z,57.60
2022-09-15T13:04:27.505Z,57.49
2022-09-15T13:07:35.081Z,56.50
2022-09-15T13:10:11.995Z,57.02
2022-09-15T13:12:56.438Z,56.37
2022-09-15T13:15:29.765Z,56.38
2022-09-15T13:17:59.721Z,56.10
2022-09-15T13:20:34.850Z,54.47
2022-09-15T13:23:10.225Z,55.04
2022-09-15T13:25:46.508Z,54.64
2022-09-15T13:28:18.987Z,54.73
2022-09-15T13:31:27.860Z,55.30
2022-09-15T13:35:04.815Z,53.35
2022-09-15T13:38:20.257Z,51.75
2022-09-15T13:41:01.240Z,53.16
2022-09-15T13:43:48.594Z,52.04
2022-09-15T13:46:31.054Z,52.70
2022-09-15T13:49:36.049Z,53.93
2022-09-15T13:52:33.472Z,53.98
2022-09-15T13:55:10.741Z,53.90
2022-09-15T14:00:59.980Z,53.85
2022-09-15T14:03:55.574Z,51.79
2022-09-15T14:06:46.880Z,53.31
2022-09-15T14:09:39.833Z,52.93
2022-09-15T14:12:12.877Z,52.93
2022-09-15T14:14:47.935Z,53.75
2022-09-15T14:17:30.192Z,52.45
2022-09-15T14:20:01.006Z,53.36
2022-09-15T14:22:34.434Z,52.98
2022-09-15T14:25:14.492Z,52.97
2022-09-15T14:27:49.948Z,51.52
2022-09-15T14:30:26.463Z,52.74
2022-09-15T14:33:01.146Z,50.93
2022-09-15T14:35:37.051Z,51.68
2022-09-15T14:38:05.769Z,51.43
2022-09-15T14:40:40.083Z,52.98
2022-09-15T14:43:31.624Z,52.35
2022-09-15T14:46:20.966Z,51.84
2022-09-15T14:48:49.185Z,53.47
2022-09-15T14:51:28.735Z,53.20
2022-09-15T14:54:01.011Z,54.05
2022-09-15T14:56:38.100Z,54.04
2022-09-15T14:59:16.640Z,54.55
2022-09-15T15:02:24.340Z,54.53
2022-09-15T15:05:14.588Z,54.86
2022-09-15T15:07:44.355Z,53.71
2022-09-15T15:10:32.238Z,54.21
2022-09-15T15:13:16.545Z,54.24
2022-09-15T15:15:46.242Z,55.02
2022-09-15T15:18:41.094Z,54.19
2022-09-15T15:21:41.727Z,54.46
2022-09-15T15:24:12.430Z,54.67
2022-09-15T15:26:44.555Z,54.56
2022-09-15T15:29:51.836Z,53.04
2022-09-15T15:32:25.167Z,53.55
2022-09-15T15:35:01.867Z,51.36
2022-09-15T15:37:33.958Z,51.93
2022-09-15T15:40:07.980Z,52.14
2022-09-15T15:42:36.217Z,52.59
2022-09-15T15:45:21.924Z,52.62
2022-09-15T15:47:50.269Z,52.57
2022-09-15T15:50:27.374Z,54.11
2022-09-15T15:52:55.702Z,54.66
2022-09-15T15:55:37.873Z,54.49
2022-09-15T15:58:06.578Z,55.74
2022-09-15T16:00:53.747Z,58.11
2022-09-15T16:03:24.345Z,57.97
2022-09-15T16:05:57.785Z,57.83
2022-09-15T16:08:34.598Z,57.90
2022-09-15T16:11:03.588Z,59.69
2022-09-15T16:13:31.743Z,60.81
2022-09-15T16:16:01.379Z,62.72
2022-09-15T16:18:29.637Z,62.36
2022-09-15T16:20:57.764Z,64.84
2022-09-15T16:23:25.909Z,64.83
2022-09-15T16:26:07.591Z,66.11
2022-09-15T16:28:35.753Z,63.70
2022-09-15T16:31:04.508Z,63.81
2022-09-15T16:33:37.379Z,63.54
2022-09-15T16:36:09.081Z,64.38
2022-09-15T16:38:37.227Z,64.71
2022-09-15T16:41:23.157Z,63.85
2022-09-15T16:43:53.414Z,64.28
2022-09-15T16:46:22.078Z,64.00
2022-09-15T16:48:50.305Z,64.07
2022-09-15T16:51:28.783Z,62.68
2022-09-15T16:53:59.513Z,63.02
2022-09-15T16:56:28.121Z,62.82
2022-09-15T16:59:00.094Z,63.63
2022-09-15T17:01:29.028Z,63.65
2022-09-15T17:03:57.579Z,62.90
2022-09-15T17:06:25.729Z,62.58
2022-09-15T17:08:56.265Z,62.91
2022-09-15T17:11:26.302Z,62.18
2022-09-15T17:13:54.559Z,62.18
2022-09-15T17:16:22.959Z,61.96
2022-09-15T17:18:51.109Z,61.46
2022-09-15T17:21:19.812Z,61.03
2022-09-15T17:23:50.317Z,61.86
2022-09-15T17:26:24.686Z,62.05
2022-09-15T17:28:56.384Z,63.11
2022-09-15T17:31:25.080Z,63.65
2022-09-15T17:33:53.515Z,63.93
2022-09-15T17:36:21.716Z,64.80
2022-09-15T17:38:49.947Z,65.77
2022-09-15T17:41:20.939Z,66.27
2022-09-15T17:43:49.576Z,66.24
2022-09-15T17:46:17.792Z,66.29
2022-09-15T17:48:45.970Z,65.95
2022-09-15T17:51:19.704Z,66.54
2022-09-15T17:53:48.041Z,66.73
2022-09-15T17:56:16.901Z,65.95
2022-09-15T17:58:45.091Z,65.47
2022-09-15T18:01:15.335Z,67.21
2022-09-15T18:03:45.632Z,66.57
2022-09-15T18:06:13.915Z,66.67
2022-09-15T18:08:42.135Z,66.77
2022-09-15T18:11:14.453Z,66.76
2022-09-15T18:13:43.188Z,65.84
2022-09-15T18:16:13.959Z,66.29
2022-09-15T18:18:42.964Z,67.40
2022-09-15T18:21:26.996Z,66.63
2022-09-15T18:23:56.095Z,67.27
2022-09-15T18:26:26.530Z,66.96
2022-09-15T18:28:55.237Z,66.98
2022-09-15T18:31:23.825Z,67.18
2022-09-15T18:33:52.029Z,67.68
2022-09-15T18:36:20.741Z,67.74
2022-09-15T18:38:49.063Z,67.27
2022-09-15T18:41:17.328Z,68.24
2022-09-15T18:43:49.186Z,68.80
2022-09-15T18:46:18.284Z,69.56
2022-09-15T18:48:46.545Z,69.35
2022-09-15T18:51:23.774Z,69.71
2022-09-15T18:53:57.567Z,71.36
2022-09-15T18:56:25.719Z,71.41
2022-09-15T18:58:54.610Z,71.84
2022-09-15T19:01:23.301Z,71.83
2022-09-15T19:03:51.578Z,72.25
2022-09-15T19:06:19.689Z,72.18
2022-09-15T19:08:47.861Z,71.89
2022-09-15T19:11:16.122Z,72.16
2022-09-15T19:13:44.447Z,71.47
2022-09-15T19:16:13.062Z,70.76
2022-09-15T19:18:41.426Z,71.13
2022-09-15T19:21:12.197Z,71.28
2022-09-15T19:23:40.426Z,72.32
2022-09-15T19:26:13.755Z,71.40
2022-09-15T19:28:44.428Z,72.58
2022-09-15T19:31:13.809Z,72.49
2022-09-15T19:33:42.553Z,71.50
2022-09-15T19:36:27.387Z,73.56
2022-09-15T19:38:57.449Z,72.05
2022-09-15T19:41:25.926Z,71.30
2022-09-15T19:43:54.258Z,70.95
2022-09-15T19:46:25.131Z,72.44
2022-09-15T19:48:54.378Z,72.50
2022-09-15T19:51:23.390Z,72.72
2022-09-15T19:53:56.347Z,72.91
2022-09-15T19:56:26.790Z,72.17
2022-09-15T19:58:57.432Z,72.51
2022-09-15T20:01:29.335Z,71.86
2022-09-15T20:03:57.834Z,72.88
2022-09-15T20:06:30.266Z,72.14
2022-09-15T20:09:00.851Z,73.57
2022-09-15T20:11:30.267Z,72.69
2022-09-15T20:13:58.996Z,73.68
2022-09-15T20:16:27.678Z,72.61
2022-09-15T20:18:56.239Z,72.91
2022-09-15T20:21:49.150Z,73.41
2022-09-15T20:24:20.841Z,74.80
2022-09-15T20:26:49.128Z,74.61
2022-09-15T20:29:17.764Z,74.56
2022-09-15T20:31:47.551Z,74.44
2022-09-15T20:34:15.956Z,74.51
2022-09-15T20:36:44.696Z,74.59
2022-09-15T20:39:15.709Z,76.88
2022-09-15T20:41:46.659Z,74.92
2022-09-15T20:44:14.965Z,74.81
2022-09-15T20:46:43.323Z,75.20
2022-09-15T20:49:12.325Z,75.05
2022-09-15T20:51:40.560Z,74.99
2022-09-15T20:54:10.899Z,73.20
2022-09-15T20:56:39.065Z,74.46
2022-09-15T20:59:10.327Z,73.81
2022-09-15T21:01:39.956Z,74.48
2022-09-15T21:04:10.386Z,75.40
2022-09-15T21:06:39.399Z,73.67
2022-09-15T21:09:08.700Z,74.37
2022-09-15T21:11:37.085Z,73.48
2022-09-15T21:14:05.317Z,73.67
2022-09-15T21:16:34.923Z,72.95
2022-09-15T21:19:03.515Z,72.20
2022-09-15T21:21:33.751Z,73.32
2022-09-15T21:24:07.308Z,71.64
2022-09-15T21:27:00.395Z,73.81
2022-09-15T21:29:29.007Z,73.39
2022-09-15T21:31:57.797Z,73.06
2022-09-15T21:34:26.393Z,73.58
2022-09-15T21:36:54.614Z,74.05
2022-09-15T21:39:22.896Z,74.68
2022-09-15T21:41:51.216Z,74.05
2022-09-15T21:44:19.561Z,76.00
2022-09-15T21:46:47.766Z,74.79
2022-09-15T21:49:18.068Z,74.43
2022-09-15T21:51:46.448Z,74.70
2022-09-15T21:54:15.204Z,74.42
2022-09-15T21:56:43.568Z,73.09
2022-09-15T21:59:11.794Z,75.15
2022-09-15T22:01:40.838Z,74.39
2022-09-15T22:04:10.561Z,75.45
2022-09-15T22:06:41.646Z,74.71
2022-09-15T22:09:15.710Z,76.21
2022-09-15T22:11:44.470Z,75.96
2022-09-15T22:14:13.262Z,76.45
2022-09-15T22:16:42.922Z,77.06
2022-09-15T22:19:12.352Z,77.12
2022-09-15T22:21:42.112Z,76.28
2022-09-15T22:24:12.989Z,77.61
2022-09-15T22:26:42.773Z,77.20
2022-09-15T22:29:11.648Z,76.58
2022-09-15T22:31:40.913Z,76.70
2022-09-15T22:34:09.257Z,77.32
2022-09-15T22:36:37.442Z,77.70
2022-09-15T22:39:06.325Z,76.90
2022-09-15T22:41:38.301Z,77.35
2022-09-15T22:44:16.699Z,77.63
2022-09-15T22:46:44.941Z,76.88
2022-09-15T22:49:13.064Z,76.81
2022-09-15T22:51:41.444Z,77.31
2022-09-15T22:54:09.608Z,76.89
2022-09-15T22:56:37.801Z,77.29
2022-09-15T22:59:06.071Z,78.17
2022-09-15T23:01:34.300Z,78.18
2022-09-15T23:04:03.444Z,78.08
2022-09-15T23:06:33.957Z,77.71
2022-09-15T23:09:07.471Z,77.62
2022-09-15T23:11:39.811Z,77.54
2022-09-15T23:14:16.878Z,77.54
2022-09-15T23:16:45.479Z,78.18
2022-09-15T23:19:14.455Z,78.11
2022-09-15T23:21:42.678Z,77.19
2022-09-15T23:24:12.550Z,78.07
2022-09-15T23:26:40.902Z,77.80
2022-09-15T23:29:10.070Z,77.13
2022-09-15T23:31:38.375Z,77.86
2022-09-15T23:34:06.564Z,77.17
2022-09-15T23:36:34.693Z,76.56
2022-09-15T23:39:02.890Z,77.17
2022-09-15T23:41:31.056Z,77.26
2022-09-15T23:43:59.928Z,77.69
2022-09-15T23:46:28.202Z,78.77
2022-09-15T23:48:56.411Z,77.79
2022-09-15T23:51:24.614Z,77.54
2022-09-15T23:53:52.797Z,78.47
2022-09-15T23:56:20.952Z,78.29
2022-09-15T23:58:49.072Z,78.23
